Terminal Aerodrome Forecast
Issued by NWS

Home | Current Version | Previous Version | Text Only | Print | Product List | Glossary On
Versions: 1 2 3 4 5 6 7 8 9 10 11 12 13 14 15
000
FTUS45 KRIW 061100
TAFCOD
TAF
KCOD 061128Z 0612/0712 34012G22KT P6SM VCSH SCT018 BKN028
     FM070100 35011KT P6SM BKN040
     FM070900 35012G18KT P6SM -SHRA BKN018
      AMD LTD TO CLD VIS AND WIND=

USA.gov is the U.S. government's official web portal to all federal, state and local government web resources and services.